Time;durP1;ratioP1;P1;durP2;ratioP2;P2;SDS_P1;SDS_P2;PMS_P1;PMS_P2;Temp;Humidity;BMP_temperature;BMP_pressure;BME280_temperature;BME280_humidity;BME280_pressure;Samples;Min_cycle;Max_cycle;Signal;HPM_P1;HPM_P2
2022/05/25 00:01:40;;;;;;;2.92;1.55;;;12.80;99.90;;;;;;4902993;29;20107;-80
2022/05/25 00:04:06;;;;;;;4.40;1.85;;;12.70;99.90;;;;;;4903259;29;20049;-79
2022/05/25 00:06:32;;;;;;;3.55;1.70;;;12.80;99.90;;;;;;4909788;29;20510;-79
2022/05/25 00:08:58;;;;;;;3.05;1.48;;;12.80;99.90;;;;;;4903987;29;20067;-80
2022/05/25 00:11:24;;;;;;;4.80;1.60;;;12.50;99.90;;;;;;4909412;29;20056;-78
2022/05/25 00:13:50;;;;;;;4.90;1.50;;;12.70;99.90;;;;;;4893491;29;20066;-79
2022/05/25 00:16:16;;;;;;;6.18;1.90;;;12.70;99.90;;;;;;4870403;29;20435;-80
2022/05/25 00:19:59;;;;;;;4.75;1.50;;;12.70;99.90;;;;;;4872384;29;20087;-79
2022/05/25 00:21:30;;;;;;;3.65;1.48;;;12.70;99.90;;;;;;4918080;29;20409;-80
2022/05/25 00:23:56;;;;;;;4.00;1.48;;;12.70;99.90;;;;;;4904079;29;20452;-80
2022/05/25 00:26:22;;;;;;;2.78;1.70;;;12.70;99.90;;;;;;4871745;29;20063;-80
2022/05/25 00:28:47;;;;;;;5.13;1.80;;;12.70;99.90;;;;;;4902281;29;20048;-80
2022/05/25 00:31:14;;;;;;;3.65;1.70;;;12.70;99.90;;;;;;4863095;29;20112;-80
2022/05/25 00:33:39;;;;;;;4.38;1.83;;;12.70;99.90;;;;;;4888985;29;20071;-81
2022/05/25 00:36:05;;;;;;;3.85;1.75;;;12.70;99.90;;;;;;4890664;29;20048;-79
2022/05/25 00:38:31;;;;;;;4.43;1.95;;;12.70;99.90;;;;;;4928212;29;20056;-80
2022/05/25 00:40:58;;;;;;;4.95;1.67;;;12.70;99.90;;;;;;4921881;29;20056;-80
2022/05/25 00:43:23;;;;;;;5.80;1.73;;;12.70;99.90;;;;;;4912438;29;20056;-79
2022/05/25 00:46:16;;;;;;;3.50;1.30;;;12.70;99.90;;;;;;4921589;29;20112;-79
2022/05/25 00:48:48;;;;;;;6.68;1.50;;;12.70;99.90;;;;;;4897610;29;20387;-81
2022/05/25 00:51:22;;;;;;;3.55;1.35;;;12.70;99.90;;;;;;4896394;29;20506;-80
2022/05/25 00:54:10;;;;;;;3.38;1.45;;;12.70;99.90;;;;;;4911208;29;20054;-80
2022/05/25 00:56:43;;;;;;;4.75;1.70;;;12.70;99.90;;;;;;4921562;29;20080;-79
2022/05/25 00:59:16;;;;;;;4.88;1.40;;;12.70;99.90;;;;;;4905881;29;20447;-80
2022/05/25 01:01:43;;;;;;;4.97;1.65;;;12.70;99.90;;;;;;4904503;29;20059;-80
2022/05/25 01:04:10;;;;;;;4.80;1.63;;;12.70;99.90;;;;;;4905452;29;20127;-80
2022/05/25 01:06:56;;;;;;;5.70;1.40;;;12.70;99.90;;;;;;4921991;29;20059;-79
2022/05/25 01:10:08;;;;;;;7.30;1.52;;;12.70;99.90;;;;;;4912603;29;20055;-80
2022/05/25 01:12:51;;;;;;;5.88;1.48;;;12.70;99.90;;;;;;4886250;29;20506;-80
2022/05/25 01:15:54;;;;;;;5.47;1.40;;;12.70;99.90;;;;;;4894310;29;20095;-79
2022/05/25 01:18:31;;;;;;;5.30;1.52;;;12.70;99.90;;;;;;4905001;29;20494;-79
2022/05/25 01:21:24;;;;;;;5.15;1.40;;;12.70;99.90;;;;;;4911821;29;20049;-80
2022/05/25 01:23:52;;;;;;;5.57;1.30;;;12.60;99.90;;;;;;4904330;29;20056;-80
2022/05/25 01:26:56;;;;;;;7.00;1.83;;;12.60;99.90;;;;;;4895716;29;20071;-80
2022/05/25 01:30:03;;;;;;;5.72;1.52;;;12.60;99.90;;;;;;4911949;29;20181;-80
2022/05/25 01:32:51;;;;;;;5.90;1.80;;;12.60;99.90;;;;;;4911505;29;20054;-79
2022/05/25 01:35:21;;;;;;;4.22;1.60;;;12.60;99.90;;;;;;4905027;29;20074;-80
2022/05/25 01:37:50;;;;;;;6.07;1.88;;;12.60;99.90;;;;;;4910940;29;20040;-80
2022/05/25 01:40:49;;;;;;;6.35;1.85;;;12.60;99.90;;;;;;4910710;29;20578;-79
2022/05/25 01:43:23;;;;;;;3.67;1.60;;;12.60;99.90;;;;;;4891627;29;20498;-79
2022/05/25 01:46:06;;;;;;;9.27;2.67;;;12.60;99.90;;;;;;4904339;29;20059;-79
2022/05/25 01:48:35;;;;;;;5.03;1.60;;;12.60;99.90;;;;;;4904664;29;20482;-80
2022/05/25 01:51:06;;;;;;;9.30;2.20;;;12.60;99.90;;;;;;4892578;29;20064;-81
2022/05/25 01:53:39;;;;;;;6.93;1.80;;;12.60;99.90;;;;;;4918866;29;20075;-81
2022/05/25 01:56:07;;;;;;;6.55;1.70;;;12.60;99.90;;;;;;4921430;29;20052;-79
2022/05/25 01:58:37;;;;;;;7.07;1.75;;;12.60;99.90;;;;;;4889341;29;20048;-80
2022/05/25 02:01:05;;;;;;;7.38;1.98;;;12.60;99.90;;;;;;4895232;29;20051;-80
2022/05/25 02:06:42;;;;;;;5.43;1.90;;;12.60;99.90;;;;;;4911662;29;20060;-80
2022/05/25 02:09:26;;;;;;;5.60;1.67;;;12.60;99.90;;;;;;4911442;29;20074;-79
2022/05/25 02:12:07;;;;;;;5.90;1.98;;;12.70;99.90;;;;;;4904164;29;20064;-80
2022/05/25 02:14:52;;;;;;;4.55;1.55;;;12.60;99.90;;;;;;4904473;29;20371;-80
2022/05/25 02:17:30;;;;;;;4.85;1.60;;;12.70;99.90;;;;;;4921543;29;20073;-78
2022/05/25 02:20:06;;;;;;;5.75;1.63;;;12.70;99.90;;;;;;4919391;29;20193;-79
2022/05/25 02:22:41;;;;;;;8.43;1.90;;;12.70;99.90;;;;;;4903689;29;20072;-78
2022/05/25 02:25:22;;;;;;;5.75;1.85;;;12.60;99.90;;;;;;4919083;29;20105;-77
2022/05/25 02:27:55;;;;;;;5.65;1.77;;;12.60;99.90;;;;;;4920512;29;20060;-80
2022/05/25 02:30:24;;;;;;;4.35;1.63;;;12.60;99.90;;;;;;4910354;29;20131;-78
2022/05/25 02:32:49;;;;;;;4.90;1.58;;;12.60;99.90;;;;;;4910304;29;20055;-79
2022/05/25 02:35:17;;;;;;;8.55;2.00;;;12.60;99.90;;;;;;4910913;29;20491;-78
2022/05/25 02:37:44;;;;;;;9.13;1.80;;;12.60;99.90;;;;;;4888576;29;20052;-78
2022/05/25 02:40:12;;;;;;;5.55;2.00;;;12.60;99.90;;;;;;4919117;29;20368;-78
2022/05/25 02:42:40;;;;;;;8.18;1.80;;;12.60;99.90;;;;;;4895052;29;20489;-77
2022/05/25 02:45:07;;;;;;;5.35;1.60;;;12.60;99.90;;;;;;4889158;29;20510;-78
2022/05/25 02:47:33;;;;;;;7.18;1.45;;;12.60;99.90;;;;;;4905065;29;20392;-78
2022/05/25 02:49:59;;;;;;;7.15;1.70;;;12.50;99.90;;;;;;4918234;29;20063;-79
2022/05/25 02:52:25;;;;;;;4.43;1.75;;;12.60;99.90;;;;;;4903539;29;20128;-79
2022/05/25 02:54:51;;;;;;;5.22;1.30;;;12.60;99.90;;;;;;4903915;29;20470;-80
2022/05/25 02:57:17;;;;;;;4.55;1.50;;;12.60;99.90;;;;;;4893999;29;20131;-79
2022/05/25 02:59:43;;;;;;;5.93;1.35;;;12.60;99.90;;;;;;4920257;29;20170;-79
2022/05/25 03:02:09;;;;;;;5.63;1.85;;;12.60;99.90;;;;;;4895336;29;20170;-79
2022/05/25 03:04:40;;;;;;;5.40;1.55;;;12.60;99.90;;;;;;4903118;29;20052;-78
2022/05/25 03:07:07;;;;;;;8.23;1.90;;;12.60;99.90;;;;;;4910168;29;20142;-78
2022/05/25 03:09:37;;;;;;;6.43;1.30;;;12.70;99.90;;;;;;4905475;29;20406;-80
2022/05/25 03:12:07;;;;;;;6.38;1.27;;;12.70;99.90;;;;;;4895589;29;20079;-79
2022/05/25 03:14:34;;;;;;;6.75;1.65;;;12.70;99.90;;;;;;4910850;29;20062;-79
2022/05/25 03:17:08;;;;;;;7.85;2.05;;;12.70;99.90;;;;;;4909267;29;20095;-79
2022/05/25 03:19:35;;;;;;;4.60;1.73;;;12.70;99.90;;;;;;4895548;29;20052;-78
2022/05/25 03:22:01;;;;;;;7.35;1.73;;;12.70;99.90;;;;;;4910130;29;20051;-79
2022/05/25 03:24:26;;;;;;;5.68;1.55;;;12.70;99.90;;;;;;4911668;29;20604;-79
2022/05/25 03:26:52;;;;;;;7.90;1.48;;;12.70;99.90;;;;;;4902464;29;20056;-81
2022/05/25 03:29:19;;;;;;;6.90;1.90;;;12.70;99.90;;;;;;4902075;29;20051;-78
2022/05/25 03:31:44;;;;;;;7.88;1.73;;;12.70;99.90;;;;;;4902374;29;20051;-79
2022/05/25 03:34:10;;;;;;;3.70;1.67;;;12.80;99.90;;;;;;4918815;29;20608;-78
2022/05/25 03:36:36;;;;;;;6.93;1.67;;;12.70;99.90;;;;;;4910903;29;20044;-79
2022/05/25 03:39:02;;;;;;;7.03;1.75;;;12.80;99.90;;;;;;4902026;29;20052;-78
2022/05/25 03:41:28;;;;;;;6.55;1.65;;;12.80;99.90;;;;;;4909580;29;20058;-79
2022/05/25 03:43:54;;;;;;;3.65;1.60;;;12.80;99.90;;;;;;4894295;29;20072;-81
2022/05/25 03:46:19;;;;;;;4.28;1.25;;;12.70;99.90;;;;;;4886494;29;20498;-78
2022/05/25 03:48:45;;;;;;;4.97;1.40;;;12.70;99.90;;;;;;4919197;29;20127;-79
2022/05/25 03:51:11;;;;;;;5.68;1.50;;;12.70;99.90;;;;;;4902321;29;20557;-78
2022/05/25 03:53:37;;;;;;;3.13;1.05;;;12.60;99.90;;;;;;4905317;29;20055;-78
2022/05/25 03:56:05;;;;;;;3.75;0.98;;;12.60;99.90;;;;;;4902190;29;20048;-79
2022/05/25 03:58:31;;;;;;;6.45;1.30;;;12.70;99.90;;;;;;4887622;29;20048;-79
2022/05/25 04:00:56;;;;;;;5.78;1.17;;;12.70;99.90;;;;;;4886323;29;20063;-79
2022/05/25 04:03:22;;;;;;;4.63;1.02;;;12.70;99.90;;;;;;4902907;29;20095;-78
2022/05/25 04:05:48;;;;;;;5.20;1.33;;;12.60;99.90;;;;;;4871557;29;20060;-79
2022/05/25 04:08:14;;;;;;;3.63;1.05;;;12.70;99.90;;;;;;4911263;29;20639;-79
2022/05/25 04:10:40;;;;;;;2.35;1.00;;;12.70;99.90;;;;;;4921486;29;20047;-79
2022/05/25 04:13:06;;;;;;;2.47;0.73;;;12.70;99.90;;;;;;4912595;29;20055;-79
2022/05/25 04:15:33;;;;;;;6.03;1.20;;;12.70;99.90;;;;;;4905306;29;20047;-79
2022/05/25 04:17:59;;;;;;;4.15;1.00;;;12.80;99.90;;;;;;4904865;29;20048;-79
2022/05/25 04:20:27;;;;;;;6.55;1.30;;;12.90;99.90;;;;;;4920976;29;20063;-79
2022/05/25 04:22:53;;;;;;;7.13;1.38;;;12.90;99.90;;;;;;4905236;29;20048;-79
2022/05/25 04:25:21;;;;;;;6.22;1.20;;;13.00;99.90;;;;;;4905400;29;20183;-79
2022/05/25 04:27:48;;;;;;;3.28;1.00;;;13.00;99.90;;;;;;4908447;29;20059;-78
2022/05/25 04:30:24;;;;;;;4.75;1.20;;;13.10;99.90;;;;;;4912595;29;20040;-79
2022/05/25 04:32:50;;;;;;;5.43;1.20;;;13.10;99.90;;;;;;4905388;29;20518;-79
2022/05/25 04:35:16;;;;;;;5.32;1.30;;;13.10;99.90;;;;;;4888936;29;20048;-79
2022/05/25 04:40:40;;;;;;;3.47;0.95;;;13.10;99.90;;;;;;4913164;29;20601;-78
2022/05/25 04:43:12;;;;;;;2.97;1.02;;;13.10;99.90;;;;;;4905008;29;20049;-79
2022/05/25 04:45:40;;;;;;;4.18;1.42;;;13.00;99.90;;;;;;4921176;29;20061;-80
2022/05/25 04:48:06;;;;;;;4.20;1.17;;;13.10;99.90;;;;;;4896550;29;20072;-78
2022/05/25 04:50:40;;;;;;;4.10;1.13;;;13.10;99.90;;;;;;4913077;29;20063;-78
2022/05/25 04:53:07;;;;;;;4.70;1.05;;;13.10;99.90;;;;;;4921482;29;20153;-78
2022/05/25 04:58:29;;;;;;;5.43;1.45;;;13.10;99.90;;;;;;4904163;29;20053;-78
2022/05/25 05:00:55;;;;;;;3.60;1.40;;;13.20;99.90;;;;;;4890557;29;20142;-80
2022/05/25 05:03:23;;;;;;;3.55;1.40;;;13.20;99.90;;;;;;4905922;29;20442;-79
2022/05/25 05:05:50;;;;;;;3.35;1.17;;;13.20;99.90;;;;;;4921147;29;20059;-79
2022/05/25 05:08:16;;;;;;;6.22;1.40;;;13.30;99.90;;;;;;4920337;29;20049;-79
2022/05/25 05:10:42;;;;;;;3.60;1.25;;;13.30;99.90;;;;;;4902954;29;20434;-79
2022/05/25 05:13:08;;;;;;;10.75;1.65;;;13.30;99.90;;;;;;4906438;29;20052;-79
2022/05/25 05:15:36;;;;;;;6.38;1.20;;;13.40;99.90;;;;;;4905705;29;20079;-80
2022/05/25 05:18:02;;;;;;;4.63;0.95;;;13.40;99.90;;;;;;4903859;29;20053;-81
2022/05/25 05:20:28;;;;;;;2.17;0.90;;;13.40;99.90;;;;;;4873623;29;20136;-78
2022/05/25 05:22:54;;;;;;;2.63;0.93;;;13.40;99.90;;;;;;4889614;29;20052;-78
2022/05/25 05:25:20;;;;;;;3.90;1.00;;;13.40;99.90;;;;;;4910556;29;21423;-80
2022/05/25 05:27:46;;;;;;;6.10;1.25;;;13.50;99.90;;;;;;4920299;29;20053;-79
2022/05/25 05:30:17;;;;;;;5.97;1.08;;;13.50;99.90;;;;;;4895617;29;20059;-79
2022/05/25 05:32:43;;;;;;;5.78;1.02;;;13.50;99.90;;;;;;4920359;29;20055;-78
2022/05/25 05:35:09;;;;;;;4.22;0.93;;;13.60;99.90;;;;;;4922869;29;20052;-79
2022/05/25 05:37:49;;;;;;;3.83;1.05;;;13.60;99.90;;;;;;4894991;29;20144;-79
2022/05/25 05:40:18;;;;;;;3.45;1.02;;;13.70;99.90;;;;;;4904366;29;20054;-78
2022/05/25 05:42:46;;;;;;;3.25;0.82;;;13.70;99.90;;;;;;4904279;29;20091;-80
2022/05/25 05:45:25;;;;;;;3.85;1.00;;;13.80;99.90;;;;;;4887376;29;20135;-78
2022/05/25 05:47:59;;;;;;;2.95;0.80;;;13.90;99.90;;;;;;4888271;29;20091;-80
2022/05/25 05:50:25;;;;;;;4.18;0.88;;;13.90;99.90;;;;;;4888879;29;20056;-79
2022/05/25 05:52:52;;;;;;;2.78;1.17;;;13.80;99.90;;;;;;4918983;29;20051;-79
2022/05/25 05:55:19;;;;;;;2.88;0.70;;;14.00;99.90;;;;;;4904249;29;20715;-79
2022/05/25 05:57:45;;;;;;;4.88;1.13;;;14.00;99.90;;;;;;4895589;29;20048;-78
2022/05/25 06:00:14;;;;;;;4.70;1.17;;;14.10;99.90;;;;;;4903727;29;20587;-79
2022/05/25 06:02:41;;;;;;;2.88;0.90;;;14.20;99.90;;;;;;4919724;29;20059;-79
2022/05/25 06:05:07;;;;;;;2.88;1.00;;;15.10;99.90;;;;;;4894327;29;20482;-79
2022/05/25 06:07:33;;;;;;;3.58;0.98;;;14.30;99.90;;;;;;4895932;29;20063;-77
2022/05/25 06:09:58;;;;;;;3.97;1.00;;;14.40;99.90;;;;;;4890035;29;20052;-79
2022/05/25 06:12:24;;;;;;;4.03;1.00;;;14.50;99.90;;;;;;4920558;29;20098;-79
2022/05/25 06:14:50;;;;;;;4.90;1.13;;;14.90;99.90;;;;;;4903520;29;20630;-78
2022/05/25 06:20:00;;;;;;;4.38;1.13;;;14.60;99.90;;;;;;4920554;29;20076;-78
2022/05/25 06:22:26;;;;;;;3.97;0.90;;;14.70;99.90;;;;;;4919972;29;20060;-77
2022/05/25 06:24:52;;;;;;;2.33;0.98;;;14.80;99.90;;;;;;4873946;29;20136;-77
2022/05/25 06:27:20;;;;;;;4.35;1.10;;;14.90;99.90;;;;;;4908865;29;20052;-77
2022/05/25 06:29:48;;;;;;;4.03;1.23;;;15.00;99.90;;;;;;4911156;29;20048;-79
2022/05/25 06:32:16;;;;;;;3.25;1.10;;;15.10;99.90;;;;;;4871614;29;20384;-79
2022/05/25 06:34:47;;;;;;;2.50;1.30;;;15.10;99.90;;;;;;4889881;29;20043;-78
2022/05/25 06:37:19;;;;;;;4.45;1.20;;;15.20;99.90;;;;;;4904874;29;20048;-81
2022/05/25 06:39:46;;;;;;;4.00;1.27;;;15.20;99.90;;;;;;4895789;29;20071;-79
2022/05/25 06:42:11;;;;;;;6.25;1.40;;;15.30;99.90;;;;;;4919483;29;20087;-79
2022/05/25 06:44:37;;;;;;;5.13;1.38;;;15.50;99.90;;;;;;4920023;29;20064;-77
2022/05/25 06:47:05;;;;;;;3.60;1.20;;;15.50;99.90;;;;;;4885084;29;20087;-77
2022/05/25 06:49:31;;;;;;;5.20;1.42;;;15.50;99.90;;;;;;4908037;29;20063;-79
2022/05/25 06:51:57;;;;;;;3.42;1.30;;;15.60;99.90;;;;;;4915550;29;20058;-79
2022/05/25 06:54:23;;;;;;;2.10;0.98;;;15.70;99.90;;;;;;4906868;29;20048;-78
2022/05/25 06:56:50;;;;;;;3.78;1.55;;;15.90;99.90;;;;;;4900760;29;20056;-79
2022/05/25 06:59:15;;;;;;;4.38;1.40;;;15.90;99.90;;;;;;4918356;29;20062;-78
2022/05/25 07:01:42;;;;;;;2.30;1.30;;;15.90;99.90;;;;;;4916687;29;20083;-78
2022/05/25 07:04:08;;;;;;;6.10;1.70;;;15.90;99.90;;;;;;4907676;29;20056;-80
2022/05/25 07:06:36;;;;;;;3.95;1.55;;;15.80;99.90;;;;;;4910136;29;20040;-78
2022/05/25 07:09:03;;;;;;;3.45;1.35;;;15.80;99.90;;;;;;4902732;29;20412;-78
2022/05/25 07:11:29;;;;;;;4.55;1.30;;;16.00;99.90;;;;;;4902809;29;20064;-79
2022/05/25 07:13:55;;;;;;;3.17;1.38;;;16.10;99.90;;;;;;4903484;29;20121;-78
2022/05/25 07:16:22;;;;;;;4.05;1.40;;;16.30;99.90;;;;;;4873337;29;20074;-78
2022/05/25 07:18:48;;;;;;;5.97;1.40;;;16.40;99.90;;;;;;4905210;29;20044;-78
2022/05/25 07:21:18;;;;;;;3.42;1.50;;;16.50;99.90;;;;;;4909555;29;20076;-78
2022/05/25 07:23:45;;;;;;;3.72;1.33;;;16.50;99.90;;;;;;4887837;29;20380;-78
2022/05/25 07:26:11;;;;;;;3.17;1.30;;;16.50;99.90;;;;;;4888726;29;20055;-78
2022/05/25 07:28:38;;;;;;;5.45;1.77;;;16.40;99.90;;;;;;4869262;29;20189;-78
2022/05/25 07:31:36;;;;;;;3.33;1.20;;;16.60;99.90;;;;;;4907838;29;20051;-77
2022/05/25 07:34:18;;;;;;;3.83;1.77;;;16.70;99.90;;;;;;4910110;29;20474;-77
2022/05/25 07:36:51;;;;;;;4.68;1.42;;;16.60;99.90;;;;;;4909880;29;20067;-78
2022/05/25 07:39:19;;;;;;;3.45;1.50;;;16.50;99.90;;;;;;4901567;29;20060;-78
2022/05/25 07:41:49;;;;;;;3.30;1.40;;;16.40;99.90;;;;;;4887852;29;20495;-77
2022/05/25 07:44:23;;;;;;;5.65;1.77;;;16.50;99.90;;;;;;4906921;29;20507;-77
2022/05/25 07:46:49;;;;;;;4.30;1.42;;;16.60;99.90;;;;;;4903660;29;20061;-78
2022/05/25 07:49:15;;;;;;;3.78;1.60;;;16.70;99.90;;;;;;4903710;29;20044;-78
2022/05/25 07:51:41;;;;;;;5.68;1.60;;;16.80;99.90;;;;;;4920073;29;20131;-77
2022/05/25 07:54:07;;;;;;;2.90;1.60;;;16.90;99.90;;;;;;4909203;29;20124;-78
2022/05/25 07:56:37;;;;;;;4.90;1.52;;;16.90;99.90;;;;;;4892937;29;20044;-78
2022/05/25 07:59:06;;;;;;;5.05;1.42;;;16.90;99.90;;;;;;4909884;29;20546;-78
2022/05/25 08:07:23;;;;;;;4.38;1.38;;;16.90;99.90;;;;;;4897575;29;20087;-78
2022/05/25 08:09:54;;;;;;;2.08;1.05;;;17.00;99.90;;;;;;4906571;29;20044;-78
2022/05/25 08:12:21;;;;;;;3.00;1.40;;;17.00;99.90;;;;;;4917024;29;20082;-79
2022/05/25 08:14:48;;;;;;;4.75;1.20;;;16.90;99.90;;;;;;4884589;29;20048;-79
2022/05/25 08:17:14;;;;;;;4.85;1.42;;;16.90;99.90;;;;;;4902970;29;20040;-81
2022/05/25 08:19:39;;;;;;;7.22;1.50;;;16.70;99.90;;;;;;4905940;29;20036;-78
2022/05/25 08:22:06;;;;;;;3.17;1.10;;;16.70;99.90;;;;;;4919720;29;20505;-78
2022/05/25 08:24:32;;;;;;;3.38;1.10;;;16.80;99.90;;;;;;4904691;29;20051;-81
2022/05/25 08:26:59;;;;;;;2.92;1.10;;;17.00;99.90;;;;;;4890983;29;20048;-78
2022/05/25 08:29:25;;;;;;;5.78;1.13;;;17.20;99.90;;;;;;4908200;29;20568;-78
2022/05/25 08:31:55;;;;;;;4.53;0.98;;;17.50;99.90;;;;;;4902396;29;20183;-78
2022/05/25 08:34:25;;;;;;;3.38;1.15;;;17.60;99.90;;;;;;4903814;29;20059;-78
2022/05/25 08:36:52;;;;;;;4.78;1.02;;;17.70;99.90;;;;;;4901372;29;20402;-77
2022/05/25 08:39:18;;;;;;;3.85;1.20;;;17.70;99.90;;;;;;4888492;29;20044;-78
2022/05/25 08:41:46;;;;;;;3.55;0.98;;;17.80;99.90;;;;;;4908324;29;20187;-78
2022/05/25 08:44:12;;;;;;;2.80;1.10;;;18.00;99.90;;;;;;4908387;29;20063;-79
2022/05/25 08:46:39;;;;;;;3.47;1.30;;;18.10;99.90;;;;;;4902395;29;20096;-78
2022/05/25 08:49:12;;;;;;;3.33;1.17;;;18.30;99.90;;;;;;4909168;29;20052;-78
2022/05/25 08:51:50;;;;;;;3.20;0.93;;;18.30;99.90;;;;;;4908499;29;20059;-78
2022/05/25 08:54:18;;;;;;;6.10;1.52;;;18.50;99.90;;;;;;4905040;29;20490;-80
2022/05/25 08:57:08;;;;;;;4.45;1.33;;;18.70;99.90;;;;;;4912627;29;20048;-78
2022/05/25 08:59:45;;;;;;;4.97;1.33;;;18.90;99.90;;;;;;4911850;29;20048;-77
2022/05/25 09:02:41;;;;;;;5.63;1.20;;;19.10;99.90;;;;;;4904580;29;20067;-78
2022/05/25 09:05:28;;;;;;;3.95;1.20;;;19.20;99.90;;;;;;4895248;29;20052;-79
2022/05/25 09:08:20;;;;;;;5.22;1.20;;;19.30;99.90;;;;;;4912140;29;20067;-78
2022/05/25 09:10:51;;;;;;;3.92;1.80;;;19.60;99.90;;;;;;4922423;29;20044;-78
2022/05/25 09:13:24;;;;;;;3.63;1.42;;;19.60;99.90;;;;;;4922822;29;20417;-80
2022/05/25 09:18:43;;;;;;;3.92;1.20;;;19.20;99.90;;;;;;4910854;29;20311;-79
2022/05/25 09:21:10;;;;;;;5.45;1.55;;;19.10;99.90;;;;;;4922739;29;20490;-79
2022/05/25 09:23:37;;;;;;;5.82;1.40;;;19.20;99.90;;;;;;4905544;29;20051;-82
2022/05/25 09:26:03;;;;;;;4.65;1.20;;;19.50;99.90;;;;;;4923460;29;20044;-80
2022/05/25 09:28:33;;;;;;;4.53;1.48;;;19.90;99.90;;;;;;4905009;29;20052;-82
2022/05/25 09:31:02;;;;;;;4.53;1.38;;;20.10;99.90;;;;;;4920127;29;20080;-81
2022/05/25 09:33:38;;;;;;;2.33;1.20;;;20.20;99.90;;;;;;4910857;29;20048;-81
2022/05/25 09:36:44;;;;;;;3.67;1.40;;;20.40;99.90;;;;;;4905411;29;20549;-74
2022/05/25 09:39:31;;;;;;;4.88;1.20;;;20.70;99.90;;;;;;4890685;29;20159;-73
2022/05/25 09:42:03;;;;;;;6.38;1.48;;;20.60;99.90;;;;;;4913024;29;20553;-74
2022/05/25 09:44:30;;;;;;;3.20;1.00;;;20.30;99.90;;;;;;4908695;29;20136;-75
2022/05/25 09:47:01;;;;;;;1.73;1.02;;;20.10;99.90;;;;;;4905404;29;20079;-74
2022/05/25 09:49:47;;;;;;;3.00;1.20;;;20.10;99.90;;;;;;4904981;29;20059;-73
2022/05/25 09:52:39;;;;;;;4.28;1.20;;;19.80;99.90;;;;;;4910614;29;20048;-73
2022/05/25 09:55:24;;;;;;;5.55;1.30;;;19.40;99.90;;;;;;4888030;29;20052;-79
2022/05/25 09:57:55;;;;;;;3.38;1.20;;;18.90;99.90;;;;;;4919579;29;20052;-78
2022/05/25 10:00:38;;;;;;;4.50;1.63;;;18.30;99.90;;;;;;4918704;29;20052;-80
2022/05/25 10:03:25;;;;;;;6.95;1.58;;;18.00;99.90;;;;;;4918860;29;20490;-78
2022/05/25 10:05:55;;;;;;;4.32;1.50;;;17.70;99.90;;;;;;4918678;29;20048;-79
2022/05/25 10:08:39;;;;;;;6.00;1.65;;;17.60;99.90;;;;;;4912801;29;20040;-80
2022/05/25 10:11:28;;;;;;;4.47;1.40;;;17.90;99.90;;;;;;4918661;29;20048;-79
2022/05/25 10:13:56;;;;;;;4.53;1.30;;;18.10;99.90;;;;;;4911613;29;20059;-79
2022/05/25 10:16:30;;;;;;;4.07;1.45;;;18.10;99.90;;;;;;4909946;29;20048;-80
2022/05/25 10:18:59;;;;;;;6.25;1.40;;;18.40;99.90;;;;;;4888552;29;20088;-79
2022/05/25 10:21:37;;;;;;;4.72;1.60;;;18.60;99.90;;;;;;4920161;29;20095;-80
2022/05/25 10:24:15;;;;;;;4.55;1.75;;;18.90;99.90;;;;;;4921370;29;20138;-79
2022/05/25 10:26:48;;;;;;;3.28;1.50;;;19.20;99.90;;;;;;4903017;29;20044;-79
2022/05/25 10:38:38;;;;;;;4.03;1.20;;;19.30;99.90;;;;;;4901813;29;20063;-78
2022/05/25 10:44:04;;;;;;;2.78;1.00;;;19.30;99.90;;;;;;4909337;29;20059;-77
2022/05/25 10:46:31;;;;;;;4.57;1.40;;;19.50;99.90;;;;;;4919931;29;20082;-79
2022/05/25 10:49:15;;;;;;;4.55;1.20;;;19.50;99.90;;;;;;4902499;29;20059;-79
2022/05/25 10:51:52;;;;;;;4.35;1.40;;;19.60;99.90;;;;;;4919127;29;20114;-79
2022/05/25 10:54:45;;;;;;;2.92;1.10;;;19.80;99.90;;;;;;4919649;29;20104;-80
2022/05/25 10:57:26;;;;;;;6.03;1.30;;;19.90;99.90;;;;;;4888039;29;20044;-79
2022/05/25 10:59:59;;;;;;;4.30;1.27;;;20.00;99.90;;;;;;4918944;29;20047;-79
2022/05/25 11:02:33;;;;;;;3.88;1.17;;;20.10;99.90;;;;;;4893131;29;20048;-81
2022/05/25 11:05:18;;;;;;;3.35;1.00;;;19.90;99.90;;;;;;4904926;29;20056;-83
2022/05/25 11:07:44;;;;;;;3.92;1.20;;;19.60;99.90;;;;;;4919024;29;20036;-81
2022/05/25 11:10:24;;;;;;;3.60;1.20;;;19.40;99.90;;;;;;4908005;29;20498;-80
2022/05/25 11:13:29;;;;;;;4.60;1.10;;;19.30;99.90;;;;;;4916558;29;20056;-80
2022/05/25 11:16:20;;;;;;;4.95;1.40;;;19.20;99.90;;;;;;4910072;29;20052;-80
2022/05/25 11:19:11;;;;;;;4.15;1.40;;;19.00;99.90;;;;;;4901713;29;20048;-79
2022/05/25 11:21:49;;;;;;;3.53;1.10;;;18.80;99.90;;;;;;4893769;29;20052;-80
2022/05/25 11:24:28;;;;;;;3.95;1.30;;;18.70;99.90;;;;;;4888345;29;20102;-80
2022/05/25 11:27:12;;;;;;;3.75;1.10;;;18.60;99.90;;;;;;4902854;29;20146;-80
2022/05/25 11:30:12;;;;;;;5.10;1.35;;;18.60;99.90;;;;;;4918833;29;20107;-80
2022/05/25 11:32:42;;;;;;;7.40;1.35;;;18.50;99.90;;;;;;4904339;29;20088;-79
2022/05/25 11:35:34;;;;;;;3.88;1.40;;;18.40;99.90;;;;;;4886621;29;20135;-80
2022/05/25 11:38:37;;;;;;;5.68;1.20;;;18.40;99.90;;;;;;4909375;29;20494;-80
2022/05/25 11:41:34;;;;;;;5.45;1.48;;;18.30;99.90;;;;;;4910267;29;20067;-79
2022/05/25 11:44:26;;;;;;;4.43;1.13;;;18.30;99.90;;;;;;4909464;29;20068;-80
2022/05/25 11:46:51;;;;;;;3.70;1.27;;;18.30;99.90;;;;;;4901701;29;20111;-80
2022/05/25 11:49:36;;;;;;;2.92;0.90;;;18.30;99.90;;;;;;4904473;29;20056;-79
2022/05/25 11:52:25;;;;;;;4.40;1.10;;;18.20;99.90;;;;;;4902468;29;20147;-79
2022/05/25 11:55:36;;;;;;;5.70;1.20;;;18.40;99.90;;;;;;4901612;29;20083;-80
2022/05/25 11:58:27;;;;;;;5.15;1.17;;;18.30;99.90;;;;;;4905575;29;20106;-80
2022/05/25 12:01:00;;;;;;;5.35;1.35;;;18.20;99.90;;;;;;4918504;29;20052;-80
2022/05/25 12:03:54;;;;;;;5.38;1.48;;;18.10;99.90;;;;;;4886748;29;20604;-80
2022/05/25 12:06:45;;;;;;;5.65;1.45;;;18.00;99.90;;;;;;4902105;29;20520;-82
2022/05/25 12:09:38;;;;;;;4.60;1.27;;;17.80;99.90;;;;;;4918926;29;20048;-80
2022/05/25 12:12:18;;;;;;;4.95;1.40;;;18.00;99.90;;;;;;4907148;29;20123;-77
2022/05/25 12:15:04;;;;;;;5.57;1.50;;;18.00;99.90;;;;;;4889441;29;20044;-78
2022/05/25 12:17:58;;;;;;;3.20;1.38;;;18.00;99.90;;;;;;4901986;29;20045;-80
2022/05/25 12:20:32;;;;;;;3.42;0.70;;;17.90;99.90;;;;;;4908795;29;20099;-80
2022/05/25 12:23:03;;;;;;;3.80;1.10;;;17.80;99.90;;;;;;4909787;29;20052;-80
2022/05/25 12:25:30;;;;;;;3.88;1.27;;;17.50;99.90;;;;;;4909765;29;20091;-81
2022/05/25 12:27:58;;;;;;;4.15;1.00;;;17.60;99.90;;;;;;4903006;29;20056;-80
2022/05/25 12:30:37;;;;;;;3.85;1.10;;;17.70;99.90;;;;;;4891782;29;20055;-80
2022/05/25 12:33:07;;;;;;;3.72;1.00;;;17.70;99.90;;;;;;4905780;29;20135;-80
2022/05/25 12:35:35;;;;;;;4.32;0.90;;;17.90;99.90;;;;;;4906513;29;20052;-80
2022/05/25 12:38:05;;;;;;;3.58;0.90;;;18.00;99.90;;;;;;4921350;29;20139;-79
2022/05/25 12:40:33;;;;;;;3.05;0.68;;;17.50;99.90;;;;;;4907626;29;20056;-79
2022/05/25 12:42:59;;;;;;;4.47;1.10;;;17.90;99.90;;;;;;4905342;29;20116;-79
2022/05/25 12:48:36;;;;;;;6.25;1.02;;;17.60;99.90;;;;;;4905738;29;20842;-79
2022/05/25 12:51:07;;;;;;;3.75;1.15;;;17.50;99.90;;;;;;4913198;29;20410;-79
2022/05/25 12:53:54;;;;;;;4.53;1.20;;;17.50;99.90;;;;;;4921596;29;20376;-80
2022/05/25 12:56:20;;;;;;;5.50;1.10;;;17.50;99.90;;;;;;4920631;29;20064;-79
2022/05/25 12:58:51;;;;;;;7.30;1.20;;;17.50;99.90;;;;;;4921301;29;20096;-79
2022/05/25 13:01:26;;;;;;;6.55;1.30;;;17.40;99.90;;;;;;4920483;29;20757;-79
2022/05/25 13:03:54;;;;;;;4.87;1.17;;;17.40;99.90;;;;;;4910893;29;20466;-78
2022/05/25 13:06:29;;;;;;;4.38;1.38;;;17.40;99.90;;;;;;4906302;29;20127;-77
2022/05/25 13:08:55;;;;;;;4.85;1.15;;;17.40;99.90;;;;;;4911625;29;20052;-78
2022/05/25 13:11:46;;;;;;;5.35;1.23;;;17.60;99.90;;;;;;4920099;29;20048;-78
2022/05/25 13:14:18;;;;;;;6.35;1.17;;;17.60;99.90;;;;;;4912745;29;20052;-78
2022/05/25 13:16:48;;;;;;;3.75;1.00;;;17.50;99.90;;;;;;4920690;29;20070;-78
2022/05/25 13:19:29;;;;;;;2.83;0.93;;;17.50;99.90;;;;;;4913805;29;20119;-79
2022/05/25 13:22:06;;;;;;;3.92;1.05;;;17.50;99.90;;;;;;4902387;29;20040;-79
2022/05/25 13:25:02;;;;;;;3.85;0.98;;;17.40;99.90;;;;;;4911715;29;20127;-79
2022/05/25 13:28:06;;;;;;;2.35;0.60;;;17.40;99.90;;;;;;4906055;29;20180;-79
2022/05/25 13:31:18;;;;;;;4.70;1.20;;;17.30;99.90;;;;;;4912308;29;20092;-80
2022/05/25 13:33:46;;;;;;;6.45;1.20;;;17.20;99.90;;;;;;4909668;29;20052;-79
2022/05/25 13:36:24;;;;;;;4.32;1.20;;;17.10;99.90;;;;;;4908035;29;20163;-78
2022/05/25 13:38:56;;;;;;;6.47;1.40;;;17.10;99.90;;;;;;4887102;29;20410;-78
2022/05/25 13:41:32;;;;;;;5.20;1.05;;;17.00;99.90;;;;;;4903114;29;20171;-77
2022/05/25 13:43:58;;;;;;;3.30;0.90;;;17.00;99.90;;;;;;4904977;29;20115;-78
2022/05/25 13:46:31;;;;;;;4.10;0.98;;;16.90;99.90;;;;;;4917509;29;20045;-77
2022/05/25 13:48:57;;;;;;;4.82;1.25;;;16.90;99.90;;;;;;4911715;29;20044;-77
2022/05/25 13:51:24;;;;;;;4.88;1.10;;;16.90;99.90;;;;;;4911914;29;20056;-78
2022/05/25 13:53:54;;;;;;;4.60;1.08;;;16.80;99.90;;;;;;4921436;29;20131;-78